Tropical Cyclones
[Index]
Main Index Home Page Stock Weather Photos Extreme Storms Discussion Storm News and Storm Chasing Reports Tropical Cyclones / Hurricanes / Typhoons Weather Data and Links Wild Fires / Bushfires Weather Observation Techniques Weather Picture Catalogue Tornado Pictures and Reports Stock Video Footage and DVDs for sale
Season 1988-1989 Tropical Cyclone ADELININA Track Map
Season 1988-1989 Summaries: [BoM-AU] [JTWC-AU] [JTWC-SIO] [JTWC-SPAC] [JTWC-SH]
<<- Previous TC | JTWC 1988-1989 Season | Next TC ->>

click for intensity scale information  Lat/long Grid: Show Hide

 Date Labels: Show Hide

Joint Typhoon Warning Centre Cyclone Data

Name: ADELININA
Number: 1274 / 8901

30 Oct 1988 06:00 UTC to 08 Nov 1988 00:00 UTC

    date/time    lat    long     hPa   cat  kts
1988-10-30 06    7.6    77.1                  25          
1988-10-30 12    7.7    77.0                  30          
1988-10-30 18    7.9    76.9                  30          
1988-10-31 00    8.1    76.9                  35          
1988-10-31 06    8.3    76.8                  35          
1988-10-31 12    8.4    76.8            1     40          
1988-10-31 18    8.6    76.7            1     45          
1988-11-01 00    8.7    76.7            1     50          
1988-11-01 06    8.9    76.6            2     55          
1988-11-01 12    9.1    76.6            2     55          
1988-11-01 18    9.3    76.6            2     55          
1988-11-02 00    9.8    76.7            2     55          
1988-11-02 06   10.4    77.1            2     55          
1988-11-02 12   11.0    77.6            2     65          
1988-11-02 18   11.9    78.4            3     75          
1988-11-03 00   12.7    79.0            3     75          
1988-11-03 06   13.4    79.6            3     75          
1988-11-03 12   14.0    80.4            3     75          
1988-11-03 18   14.5    81.1            3     75          
1988-11-04 00   14.6    81.7            3     75          
1988-11-04 06   14.5    82.2            3     75          
1988-11-04 12   14.3    82.7            2     65          
1988-11-04 18   14.0    83.2            2     55          
1988-11-05 00   13.7    83.5            1     50          
1988-11-05 06   13.1    83.5            1     45          
1988-11-05 12   12.7    83.2            1     40          
1988-11-05 18   12.3    82.7                  35          
1988-11-06 00   12.1    82.2                  35          
1988-11-06 06   11.9    81.6                  35          
1988-11-06 12   11.7    80.9                  30          
1988-11-06 18   11.6    80.2                  30          
1988-11-07 00   11.6    79.1                  30          
1988-11-07 06   11.6    78.2                  30          
1988-11-07 12   11.5    77.5                  25          
1988-11-07 18   11.5    76.7                  25          
1988-11-08 00   11.5    76.0                  25          
Winds are 1-min average.

Tropical cyclone tracks developed by Michael Bath using data from the Joint Typhoon Warning Centre Best Tracks and Google Maps.


[Australian Severe Weather index] [Copyright Notice] [Email Contacts] [Search This Site] [Privacy Policy]
Document: tropical_cyclone_adelinina.htm Updated: 22 May 2013